createdAt,value
2022-11-23T00:04:47.151Z,109.47
2022-11-23T00:09:48.691Z,120.50
2022-11-23T00:14:50.244Z,101.68
2022-11-23T00:19:51.858Z,109.93
2022-11-23T00:24:53.437Z,107.28
2022-11-23T00:29:55.055Z,111.30
2022-11-23T00:34:56.598Z,112.50
2022-11-23T00:39:58.148Z,116.25
2022-11-23T00:44:59.710Z,111.85
2022-11-23T00:50:01.293Z,103.82
2022-11-23T00:55:02.984Z,105.13
2022-11-23T01:00:06.827Z,109.43
2022-11-23T01:05:08.785Z,102.50
2022-11-23T01:10:10.357Z,101.65
2022-11-23T01:15:11.898Z,105.30
2022-11-23T01:20:13.479Z,103.22
2022-11-23T01:25:15.038Z,99.57
2022-11-23T01:30:16.897Z,97.30
2022-11-23T01:35:18.491Z,97.05
2022-11-23T01:40:20.223Z,101.07
2022-11-23T01:45:36.224Z,100.50
2022-11-23T01:50:38.674Z,89.82
2022-11-23T01:55:40.585Z,90.68
2022-11-23T02:00:42.500Z,88.40
2022-11-23T02:05:49.301Z,91.30
2022-11-23T02:10:50.926Z,93.65
2022-11-23T02:15:54.219Z,89.78
2022-11-23T02:21:01.322Z,91.43
2022-11-23T02:26:08.128Z,89.20
2022-11-23T02:31:09.864Z,91.22
2022-11-23T02:36:44.538Z,97.45
2022-11-23T02:41:54.921Z,84.18
2022-11-23T02:46:57.917Z,86.80
2022-11-23T02:51:59.699Z,90.00
2022-11-23T02:57:01.278Z,82.90
2022-11-23T03:02:05.058Z,80.68
2022-11-23T03:07:06.672Z,82.97
2022-11-23T03:12:08.435Z,78.40
2022-11-23T03:17:10.046Z,78.95
2022-11-23T03:22:11.768Z,75.55
2022-11-23T03:27:13.352Z,72.60
2022-11-23T03:32:14.990Z,69.00
2022-11-23T03:37:16.554Z,73.13
2022-11-23T03:42:18.143Z,77.05
2022-11-23T03:47:19.720Z,73.88
2022-11-23T03:52:21.296Z,74.05
2022-11-23T03:57:22.884Z,69.95
2022-11-23T04:02:24.710Z,68.47
2022-11-23T04:07:26.282Z,64.60
2022-11-23T04:12:28.090Z,69.57
2022-11-23T04:17:29.664Z,72.53
2022-11-23T04:22:31.432Z,68.88
2022-11-23T04:27:33.057Z,68.90
2022-11-23T04:32:34.623Z,67.95
2022-11-23T04:37:36.176Z,70.78
2022-11-23T04:42:37.748Z,74.03
2022-11-23T04:47:39.412Z,68.85
2022-11-23T04:52:40.956Z,74.68
2022-11-23T04:57:42.479Z,68.78
2022-11-23T05:02:45.153Z,69.50
2022-11-23T05:07:46.762Z,74.53
2022-11-23T05:12:48.364Z,66.35
2022-11-23T05:17:49.941Z,67.47
2022-11-23T05:22:51.474Z,73.63
2022-11-23T05:27:53.095Z,76.22
2022-11-23T05:32:54.686Z,69.55
2022-11-23T05:37:56.455Z,72.30
2022-11-23T05:42:59.051Z,68.80
2022-11-23T05:48:00.631Z,65.68
2022-11-23T05:53:02.399Z,64.05
2022-11-23T05:58:03.947Z,72.68
2022-11-23T06:03:05.530Z,66.18
2022-11-23T06:08:07.096Z,68.00
2022-11-23T06:13:08.660Z,63.97
2022-11-23T06:18:10.297Z,66.82
2022-11-23T06:23:11.854Z,61.63
2022-11-23T06:28:13.451Z,65.53
2022-11-23T06:33:15.009Z,71.28
2022-11-23T06:38:16.598Z,64.65
2022-11-23T06:43:18.255Z,64.45
2022-11-23T06:48:19.823Z,65.95
2022-11-23T06:53:21.373Z,60.90
2022-11-23T06:58:22.950Z,63.28
2022-11-23T07:03:24.852Z,59.83
2022-11-23T07:08:27.526Z,65.65
2022-11-23T07:13:29.184Z,61.60
2022-11-23T07:18:30.834Z,70.93
2022-11-23T07:23:32.438Z,65.40
2022-11-23T07:28:34.070Z,63.58
2022-11-23T07:33:35.696Z,64.30
2022-11-23T07:38:37.305Z,61.90
2022-11-23T07:43:38.900Z,65.60
2022-11-23T07:48:40.437Z,69.10
2022-11-23T07:53:42.207Z,65.75
2022-11-23T07:58:43.780Z,65.00
2022-11-23T08:03:46.594Z,65.63
2022-11-23T08:08:48.310Z,64.53
2022-11-23T08:13:49.906Z,73.75
2022-11-23T08:18:51.527Z,66.25
2022-11-23T08:23:53.073Z,67.68
2022-11-23T08:28:54.652Z,70.60
2022-11-23T08:34:00.299Z,67.43
2022-11-23T08:39:05.181Z,61.77
2022-11-23T08:44:09.812Z,65.18
2022-11-23T08:49:11.396Z,71.35
2022-11-23T08:54:12.974Z,63.30
2022-11-23T08:59:14.549Z,62.92
2022-11-23T09:04:20.480Z,61.80
2022-11-23T09:09:22.756Z,63.95
2022-11-23T09:14:24.772Z,67.93
2022-11-23T09:19:26.531Z,68.88
2022-11-23T09:24:28.269Z,67.85
2022-11-23T09:29:29.899Z,67.32
2022-11-23T09:34:31.735Z,70.15
2022-11-23T09:39:33.559Z,66.10
2022-11-23T09:44:53.698Z,63.83
2022-11-23T09:50:09.302Z,67.00
2022-11-23T09:55:36.850Z,64.32
2022-11-23T10:00:47.800Z,61.17
2022-11-23T10:06:19.647Z,64.53
2022-11-23T10:11:43.932Z,61.50
2022-11-23T10:17:27.080Z,60.83
2022-11-23T10:22:42.903Z,68.63
2022-11-23T10:27:47.780Z,68.63
2022-11-23T10:33:21.897Z,68.75
2022-11-23T10:38:27.090Z,65.88
2022-11-23T10:43:34.938Z,52.13
2022-11-23T10:48:37.020Z,62.28
2022-11-23T10:53:38.846Z,52.30
2022-11-23T10:58:45.700Z,74.30
2022-11-23T11:03:47.273Z,59.05
2022-11-23T11:08:51.566Z,57.80
2022-11-23T11:14:16.909Z,59.53
2022-11-23T11:19:25.878Z,58.33
2022-11-23T11:24:39.969Z,57.67
2022-11-23T11:29:44.505Z,53.08
2022-11-23T11:34:52.480Z,55.85
2022-11-23T11:40:30.060Z,55.00
2022-11-23T11:45:36.860Z,59.30
2022-11-23T11:50:58.451Z,57.30
2022-11-23T11:56:40.456Z,58.30
2022-11-23T12:01:47.760Z,63.40
2022-11-23T12:06:56.970Z,62.85
2022-11-23T12:11:58.895Z,63.10
2022-11-23T12:17:32.839Z,54.83
2022-11-23T12:22:43.723Z,52.70
2022-11-23T12:27:51.462Z,54.65
2022-11-23T12:33:01.965Z,56.33
2022-11-23T12:38:27.846Z,60.80
2022-11-23T12:43:52.753Z,63.53
2022-11-23T12:49:13.354Z,62.17
2022-11-23T12:54:35.394Z,54.70
2022-11-23T12:59:46.320Z,55.28
2022-11-23T13:04:59.766Z,51.95
2022-11-23T13:10:21.169Z,58.13
2022-11-23T13:15:38.882Z,59.70
2022-11-23T13:21:19.115Z,63.80
2022-11-23T13:26:23.683Z,62.78
2022-11-23T13:31:36.267Z,60.78
2022-11-23T13:37:11.568Z,61.15
2022-11-23T13:42:05.929Z,66.13
2022-11-23T13:47:27.743Z,66.38
2022-11-23T13:52:31.211Z,67.07
2022-11-23T13:57:33.343Z,68.43
2022-11-23T14:02:34.971Z,68.75
2022-11-23T14:07:47.095Z,70.68
2022-11-23T14:12:56.951Z,63.25
2022-11-23T14:18:20.064Z,64.35
2022-11-23T14:23:46.355Z,60.75
2022-11-23T14:29:06.251Z,60.50
2022-11-23T14:34:37.916Z,59.78
2022-11-23T14:39:56.332Z,64.60
2022-11-23T14:45:05.104Z,62.08
2022-11-23T14:50:20.192Z,59.72
2022-11-23T14:55:24.985Z,59.80
2022-11-23T15:00:36.387Z,65.35
2022-11-23T15:05:40.026Z,65.50
2022-11-23T15:11:03.042Z,65.50
2022-11-23T15:16:05.267Z,61.58
2022-11-23T15:21:23.886Z,66.20
2022-11-23T15:32:14.431Z,62.50
2022-11-23T15:37:14.595Z,63.10
2022-11-23T15:42:18.998Z,67.38
2022-11-23T15:47:27.790Z,66.95
2022-11-23T15:52:35.839Z,68.20
2022-11-23T15:57:39.649Z,73.35
2022-11-23T16:02:42.446Z,78.28
2022-11-23T16:07:59.864Z,83.53
2022-11-23T16:13:03.978Z,83.35
2022-11-23T16:18:19.906Z,81.90
2022-11-23T16:23:27.566Z,84.30
2022-11-23T16:28:36.553Z,87.50
2022-11-23T16:33:38.105Z,87.18
2022-11-23T16:38:39.639Z,89.35
2022-11-23T16:43:41.232Z,92.25
2022-11-23T16:48:42.846Z,94.32
2022-11-23T16:59:15.575Z,90.53
2022-11-23T17:04:17.273Z,90.20
2022-11-23T17:09:18.887Z,86.55
2022-11-23T17:14:24.129Z,82.20
2022-11-23T17:19:28.238Z,80.38
2022-11-23T17:24:29.957Z,84.32
2022-11-23T17:29:32.378Z,88.53
2022-11-23T17:34:34.800Z,79.45
2022-11-23T17:39:36.549Z,85.07
2022-11-23T17:44:38.802Z,87.57
2022-11-23T17:49:40.560Z,85.65
2022-11-23T17:54:42.128Z,81.57
2022-11-23T17:59:43.920Z,81.47
2022-11-23T18:04:46.582Z,85.40
2022-11-23T18:09:48.992Z,84.18
2022-11-23T18:14:50.532Z,79.22
2022-11-23T18:19:52.163Z,76.78
2022-11-23T18:24:53.726Z,80.50
2022-11-23T18:29:55.683Z,80.63
2022-11-23T18:34:57.354Z,85.35
2022-11-23T18:39:58.885Z,96.47
2022-11-23T18:45:01.259Z,86.97
2022-11-23T18:50:06.492Z,90.63
2022-11-23T18:55:08.538Z,84.90
2022-11-23T19:00:12.570Z,88.88
2022-11-23T19:05:14.161Z,87.47
2022-11-23T19:10:16.159Z,87.05
2022-11-23T19:15:17.908Z,91.70
2022-11-23T19:20:21.430Z,98.45
2022-11-23T19:25:23.081Z,95.88
2022-11-23T19:30:24.633Z,95.15
2022-11-23T19:35:26.179Z,88.50
2022-11-23T19:40:27.726Z,94.53
2022-11-23T19:45:29.829Z,93.68
2022-11-23T19:50:31.378Z,93.07
2022-11-23T19:55:33.012Z,92.47
2022-11-23T20:00:34.569Z,100.00
2022-11-23T20:05:36.172Z,100.65
2022-11-23T20:10:37.764Z,108.07
2022-11-23T20:15:39.402Z,106.30
2022-11-23T20:20:45.946Z,113.40
2022-11-23T20:25:49.057Z,111.05
2022-11-23T20:30:51.620Z,107.55
2022-11-23T20:35:53.279Z,107.07
2022-11-23T20:40:54.851Z,104.40
2022-11-23T20:45:58.498Z,109.72
2022-11-23T20:51:00.063Z,99.90
2022-11-23T20:56:12.822Z,96.28
2022-11-23T21:01:18.738Z,94.70
2022-11-23T21:06:21.559Z,92.68
2022-11-23T21:11:46.561Z,93.22
2022-11-23T21:16:53.478Z,92.05
2022-11-23T21:21:56.823Z,91.30
2022-11-23T21:26:58.386Z,86.25
2022-11-23T21:32:03.571Z,88.63
2022-11-23T21:37:05.129Z,87.85
2022-11-23T21:42:07.384Z,83.22
2022-11-23T21:47:09.459Z,79.38
2022-11-23T21:52:11.014Z,79.80
2022-11-23T21:57:12.560Z,78.68
2022-11-23T22:08:29.498Z,74.30
2022-11-23T22:13:36.745Z,76.10
2022-11-23T22:18:39.297Z,75.20
2022-11-23T22:23:41.510Z,71.55
2022-11-23T22:28:45.833Z,76.00
2022-11-23T22:33:48.519Z,72.88
2022-11-23T22:39:02.744Z,76.47
2022-11-23T22:44:10.312Z,74.90
2022-11-23T22:49:12.431Z,68.40
2022-11-23T22:54:14.168Z,66.18
2022-11-23T22:59:15.908Z,73.03
2022-11-23T23:04:17.781Z,73.93
2022-11-23T23:09:19.535Z,64.85
2022-11-23T23:14:21.353Z,68.60
2022-11-23T23:19:23.478Z,72.25
2022-11-23T23:24:25.261Z,67.75
2022-11-23T23:29:27.095Z,61.25
2022-11-23T23:34:28.843Z,64.43
2022-11-23T23:39:30.652Z,64.85
2022-11-23T23:44:32.721Z,65.28
2022-11-23T23:49:34.752Z,68.72
2022-11-23T23:54:36.664Z,64.65
2022-11-23T23:59:38.497Z,60.95
